sensor_id;sensor_type;location;lat;lon;timestamp;temperature;humidity
72646;DHT22;60687;53.876;10.674;2023-05-10T00:02:16;13.80;51.60
72646;DHT22;60687;53.876;10.674;2023-05-10T00:12:20;13.60;51.90
72646;DHT22;60687;53.876;10.674;2023-05-10T00:22:23;13.50;52.70
72646;DHT22;60687;53.876;10.674;2023-05-10T00:32:26;13.40;52.90
72646;DHT22;60687;53.876;10.674;2023-05-10T00:42:30;13.30;53.50
72646;DHT22;60687;53.876;10.674;2023-05-10T00:52:34;13.30;53.80
72646;DHT22;60687;53.876;10.674;2023-05-10T01:02:38;13.20;54.30
72646;DHT22;60687;53.876;10.674;2023-05-10T01:12:43;13.10;54.50
72646;DHT22;60687;53.876;10.674;2023-05-10T01:23:21;13.00;55.10
72646;DHT22;60687;53.876;10.674;2023-05-10T01:33:35;12.90;56.30
72646;DHT22;60687;53.876;10.674;2023-05-10T01:43:52;12.90;56.50
72646;DHT22;60687;53.876;10.674;2023-05-10T01:54:01;12.80;56.50
72646;DHT22;60687;53.876;10.674;2023-05-10T02:04:06;12.70;57.10
72646;DHT22;60687;53.876;10.674;2023-05-10T02:14:14;12.70;57.70
72646;DHT22;60687;53.876;10.674;2023-05-10T02:24:18;12.70;58.10
72646;DHT22;60687;53.876;10.674;2023-05-10T02:34:26;12.60;59.60
72646;DHT22;60687;53.876;10.674;2023-05-10T02:44:29;12.50;59.10
72646;DHT22;60687;53.876;10.674;2023-05-10T02:54:43;12.40;59.50
72646;DHT22;60687;53.876;10.674;2023-05-10T03:04:46;12.40;61.90
72646;DHT22;60687;53.876;10.674;2023-05-10T03:14:59;12.30;61.60
72646;DHT22;60687;53.876;10.674;2023-05-10T03:25:06;12.20;62.40
72646;DHT22;60687;53.876;10.674;2023-05-10T03:35:12;12.20;62.10
72646;DHT22;60687;53.876;10.674;2023-05-10T03:45:15;12.10;64.80
72646;DHT22;60687;53.876;10.674;2023-05-10T03:55:20;12.00;64.10
72646;DHT22;60687;53.876;10.674;2023-05-10T04:05:26;12.00;64.70
72646;DHT22;60687;53.876;10.674;2023-05-10T04:15:30;12.00;66.70
72646;DHT22;60687;53.876;10.674;2023-05-10T04:25:35;12.00;65.30
72646;DHT22;60687;53.876;10.674;2023-05-10T04:35:39;12.00;67.40
72646;DHT22;60687;53.876;10.674;2023-05-10T04:45:41;12.00;67.30
72646;DHT22;60687;53.876;10.674;2023-05-10T04:55:46;12.10;67.10
72646;DHT22;60687;53.876;10.674;2023-05-10T05:05:51;12.20;68.30
72646;DHT22;60687;53.876;10.674;2023-05-10T05:15:55;12.30;66.20
72646;DHT22;60687;53.876;10.674;2023-05-10T05:25:57;12.40;68.30
72646;DHT22;60687;53.876;10.674;2023-05-10T05:36:02;12.50;65.70
72646;DHT22;60687;53.876;10.674;2023-05-10T05:46:05;12.70;66.20
72646;DHT22;60687;53.876;10.674;2023-05-10T05:56:09;12.80;66.40
72646;DHT22;60687;53.876;10.674;2023-05-10T06:06:11;13.00;64.00
72646;DHT22;60687;53.876;10.674;2023-05-10T06:16:15;13.30;63.60
72646;DHT22;60687;53.876;10.674;2023-05-10T06:26:18;13.50;63.10
72646;DHT22;60687;53.876;10.674;2023-05-10T06:36:23;13.80;62.20
72646;DHT22;60687;53.876;10.674;2023-05-10T06:46:27;14.10;60.50
72646;DHT22;60687;53.876;10.674;2023-05-10T06:56:30;14.30;60.30
72646;DHT22;60687;53.876;10.674;2023-05-10T07:06:32;14.70;60.60
72646;DHT22;60687;53.876;10.674;2023-05-10T07:16:36;15.10;58.20
72646;DHT22;60687;53.876;10.674;2023-05-10T07:26:38;15.50;57.90
72646;DHT22;60687;53.876;10.674;2023-05-10T07:36:44;15.80;55.90
72646;DHT22;60687;53.876;10.674;2023-05-10T07:46:49;16.00;55.70
72646;DHT22;60687;53.876;10.674;2023-05-10T07:56:52;16.30;54.90
72646;DHT22;60687;53.876;10.674;2023-05-10T08:06:55;16.70;53.40
72646;DHT22;60687;53.876;10.674;2023-05-10T08:16:58;17.00;52.00
72646;DHT22;60687;53.876;10.674;2023-05-10T08:27:03;17.40;51.80
72646;DHT22;60687;53.876;10.674;2023-05-10T08:37:07;17.40;50.20
72646;DHT22;60687;53.876;10.674;2023-05-10T08:47:10;17.50;50.30
72646;DHT22;60687;53.876;10.674;2023-05-10T08:57:14;17.90;50.70
72646;DHT22;60687;53.876;10.674;2023-05-10T09:07:17;18.20;50.40
72646;DHT22;60687;53.876;10.674;2023-05-10T09:17:23;18.40;49.70
72646;DHT22;60687;53.876;10.674;2023-05-10T09:27:26;18.80;49.80
72646;DHT22;60687;53.876;10.674;2023-05-10T09:37:30;19.00;48.90
72646;DHT22;60687;53.876;10.674;2023-05-10T09:47:33;19.00;47.10
72646;DHT22;60687;53.876;10.674;2023-05-10T09:57:37;19.10;48.20
72646;DHT22;60687;53.876;10.674;2023-05-10T10:07:39;19.20;48.50
72646;DHT22;60687;53.876;10.674;2023-05-10T10:17:44;19.50;49.50
72646;DHT22;60687;53.876;10.674;2023-05-10T10:27:54;19.60;47.90
72646;DHT22;60687;53.876;10.674;2023-05-10T10:38:00;19.70;47.80
72646;DHT22;60687;53.876;10.674;2023-05-10T10:48:29;19.70;47.50
72646;DHT22;60687;53.876;10.674;2023-05-10T10:58:34;19.70;47.20
72646;DHT22;60687;53.876;10.674;2023-05-10T11:08:42;19.60;48.70
72646;DHT22;60687;53.876;10.674;2023-05-10T11:19:02;19.70;49.20
72646;DHT22;60687;53.876;10.674;2023-05-10T11:29:05;19.70;49.60
72646;DHT22;60687;53.876;10.674;2023-05-10T11:39:08;19.70;49.40
72646;DHT22;60687;53.876;10.674;2023-05-10T11:49:12;19.60;49.70
72646;DHT22;60687;53.876;10.674;2023-05-10T11:59:16;19.60;50.20
72646;DHT22;60687;53.876;10.674;2023-05-10T12:09:18;19.70;49.70
72646;DHT22;60687;53.876;10.674;2023-05-10T12:19:21;19.60;50.30
72646;DHT22;60687;53.876;10.674;2023-05-10T12:29:24;19.40;50.90
72646;DHT22;60687;53.876;10.674;2023-05-10T12:39:38;19.30;50.40
72646;DHT22;60687;53.876;10.674;2023-05-10T12:49:40;19.10;54.40
72646;DHT22;60687;53.876;10.674;2023-05-10T12:59:44;18.60;61.00
72646;DHT22;60687;53.876;10.674;2023-05-10T13:09:46;18.20;66.00
72646;DHT22;60687;53.876;10.674;2023-05-10T13:19:51;17.80;76.10
72646;DHT22;60687;53.876;10.674;2023-05-10T13:29:54;17.30;85.10
72646;DHT22;60687;53.876;10.674;2023-05-10T13:39:57;16.80;88.30
72646;DHT22;60687;53.876;10.674;2023-05-10T13:50:00;16.70;90.50
72646;DHT22;60687;53.876;10.674;2023-05-10T14:00:06;16.80;89.90
72646;DHT22;60687;53.876;10.674;2023-05-10T14:10:12;16.70;90.90
72646;DHT22;60687;53.876;10.674;2023-05-10T14:20:16;16.70;91.30
72646;DHT22;60687;53.876;10.674;2023-05-10T14:30:19;16.70;92.50
72646;DHT22;60687;53.876;10.674;2023-05-10T14:40:23;16.70;92.60
72646;DHT22;60687;53.876;10.674;2023-05-10T14:50:25;16.70;94.20
72646;DHT22;60687;53.876;10.674;2023-05-10T15:00:30;16.60;94.30
72646;DHT22;60687;53.876;10.674;2023-05-10T15:10:33;16.70;93.70
72646;DHT22;60687;53.876;10.674;2023-05-10T15:20:37;16.70;92.10
72646;DHT22;60687;53.876;10.674;2023-05-10T15:30:39;16.80;92.10
72646;DHT22;60687;53.876;10.674;2023-05-10T15:40:43;16.80;93.40
72646;DHT22;60687;53.876;10.674;2023-05-10T15:50:45;16.80;93.80
72646;DHT22;60687;53.876;10.674;2023-05-10T16:00:48;16.80;94.50
72646;DHT22;60687;53.876;10.674;2023-05-10T16:11:41;16.80;93.60
72646;DHT22;60687;53.876;10.674;2023-05-10T16:21:45;16.80;93.40
72646;DHT22;60687;53.876;10.674;2023-05-10T16:31:51;16.80;93.40
72646;DHT22;60687;53.876;10.674;2023-05-10T16:41:55;16.80;93.40
72646;DHT22;60687;53.876;10.674;2023-05-10T16:51:57;16.80;94.70
72646;DHT22;60687;53.876;10.674;2023-05-10T17:02:02;16.80;93.20
72646;DHT22;60687;53.876;10.674;2023-05-10T17:12:05;16.80;93.90
72646;DHT22;60687;53.876;10.674;2023-05-10T17:22:09;16.80;94.60
72646;DHT22;60687;53.876;10.674;2023-05-10T17:32:11;16.80;94.80
72646;DHT22;60687;53.876;10.674;2023-05-10T17:42:15;16.80;93.90
72646;DHT22;60687;53.876;10.674;2023-05-10T17:52:22;16.90;94.30
72646;DHT22;60687;53.876;10.674;2023-05-10T18:02:25;16.80;94.30
72646;DHT22;60687;53.876;10.674;2023-05-10T18:12:36;16.80;94.40
72646;DHT22;60687;53.876;10.674;2023-05-10T18:22:40;16.80;94.30
72646;DHT22;60687;53.876;10.674;2023-05-10T18:32:43;16.70;94.30
72646;DHT22;60687;53.876;10.674;2023-05-10T18:42:48;16.70;93.80
72646;DHT22;60687;53.876;10.674;2023-05-10T18:52:50;16.60;95.10
72646;DHT22;60687;53.876;10.674;2023-05-10T19:02:54;16.50;95.40
72646;DHT22;60687;53.876;10.674;2023-05-10T19:12:56;16.40;95.50
72646;DHT22;60687;53.876;10.674;2023-05-10T19:23:00;16.40;95.50
72646;DHT22;60687;53.876;10.674;2023-05-10T19:33:02;16.30;96.50
72646;DHT22;60687;53.876;10.674;2023-05-10T19:43:06;16.30;95.90
72646;DHT22;60687;53.876;10.674;2023-05-10T19:53:10;16.20;96.70
72646;DHT22;60687;53.876;10.674;2023-05-10T20:03:13;16.10;97.10
72646;DHT22;60687;53.876;10.674;2023-05-10T20:13:16;16.00;98.00
72646;DHT22;60687;53.876;10.674;2023-05-10T20:23:20;15.90;98.10
72646;DHT22;60687;53.876;10.674;2023-05-10T20:33:25;15.80;99.90
72646;DHT22;60687;53.876;10.674;2023-05-10T20:43:29;15.70;99.90
72646;DHT22;60687;53.876;10.674;2023-05-10T20:53:31;15.50;99.90
72646;DHT22;60687;53.876;10.674;2023-05-10T21:03:35;15.40;99.90
72646;DHT22;60687;53.876;10.674;2023-05-10T21:13:37;15.40;99.90
72646;DHT22;60687;53.876;10.674;2023-05-10T21:23:41;15.30;99.90
72646;DHT22;60687;53.876;10.674;2023-05-10T21:33:43;15.20;99.90
72646;DHT22;60687;53.876;10.674;2023-05-10T21:43:48;15.10;99.90
72646;DHT22;60687;53.876;10.674;2023-05-10T21:53:50;15.00;99.90
72646;DHT22;60687;53.876;10.674;2023-05-10T22:03:54;15.00;99.90
72646;DHT22;60687;53.876;10.674;2023-05-10T22:13:56;14.90;99.90
72646;DHT22;60687;53.876;10.674;2023-05-10T22:24:00;14.90;99.90
72646;DHT22;60687;53.876;10.674;2023-05-10T22:34:02;14.90;99.90
72646;DHT22;60687;53.876;10.674;2023-05-10T22:44:06;14.80;99.90
72646;DHT22;60687;53.876;10.674;2023-05-10T22:54:08;14.80;99.90
72646;DHT22;60687;53.876;10.674;2023-05-10T23:04:12;14.80;99.90
72646;DHT22;60687;53.876;10.674;2023-05-10T23:14:14;14.80;99.90
72646;DHT22;60687;53.876;10.674;2023-05-10T23:24:18;14.70;99.90
72646;DHT22;60687;53.876;10.674;2023-05-10T23:34:21;14.70;99.90
72646;DHT22;60687;53.876;10.674;2023-05-10T23:44:24;14.70;99.90
72646;DHT22;60687;53.876;10.674;2023-05-10T23:54:27;14.70;99.90
